createdAt,value
2017-08-28T00:00:17.346Z,23.38
2017-08-28T00:00:57.876Z,23.43
2017-08-28T00:01:38.413Z,23.38
2017-08-28T00:02:19.003Z,23.38
2017-08-28T00:02:59.521Z,23.46
2017-08-28T00:03:40.094Z,23.35
2017-08-28T00:04:20.614Z,23.39
2017-08-28T00:05:01.163Z,23.32
2017-08-28T00:05:41.742Z,23.38
2017-08-28T00:06:22.281Z,23.43
2017-08-28T00:07:02.860Z,23.38
2017-08-28T00:07:43.414Z,23.39
2017-08-28T00:08:23.962Z,23.53
2017-08-28T00:09:04.507Z,23.42
2017-08-28T00:09:45.093Z,23.46
2017-08-28T00:10:25.651Z,23.23
2017-08-28T00:11:06.238Z,23.2
2017-08-28T00:11:46.806Z,23.13
2017-08-28T00:12:27.339Z,23.23
2017-08-28T00:13:07.898Z,23.23
2017-08-28T00:13:48.455Z,23.23
2017-08-28T00:14:29.002Z,23.23
2017-08-28T00:15:09.553Z,23.23
2017-08-28T00:15:50.099Z,23.25
2017-08-28T00:16:30.646Z,23.27
2017-08-28T00:17:11.233Z,23.35
2017-08-28T00:17:51.797Z,23.38
2017-08-28T00:18:32.325Z,23.38
2017-08-28T00:19:12.862Z,23.36
2017-08-28T00:19:53.431Z,23.33
2017-08-28T00:20:33.964Z,23.32
2017-08-28T00:21:14.559Z,23.22
2017-08-28T00:21:55.096Z,23.27
2017-08-28T00:22:35.662Z,23.23
2017-08-28T00:23:16.234Z,23.1
2017-08-28T00:23:56.795Z,23.22
2017-08-28T00:24:37.324Z,23.32
2017-08-28T00:25:17.876Z,23.25
2017-08-28T00:25:58.463Z,23.13
2017-08-28T00:26:39.014Z,23.1
2017-08-28T00:27:19.558Z,23.15
2017-08-28T00:28:00.115Z,23.13
2017-08-28T00:28:40.640Z,23.09
2017-08-28T00:29:21.190Z,23.15
2017-08-28T00:30:01.737Z,23.1
2017-08-28T00:30:42.289Z,23.04
2017-08-28T00:31:22.836Z,23.1
2017-08-28T00:32:03.400Z,23.15
2017-08-28T00:32:43.975Z,23.1
2017-08-28T00:33:24.485Z,23.15
2017-08-28T00:34:05.032Z,23.02
2017-08-28T00:34:45.580Z,23.01
2017-08-28T00:35:26.126Z,22.97
2017-08-28T00:36:06.690Z,22.88
2017-08-28T00:36:47.248Z,23.01
2017-08-28T00:37:27.792Z,22.98
2017-08-28T00:38:08.363Z,23
2017-08-28T00:38:48.909Z,22.98
2017-08-28T00:39:29.508Z,22.82
2017-08-28T00:40:10.062Z,22.88
2017-08-28T00:40:50.630Z,22.95
2017-08-28T00:41:31.185Z,22.98
2017-08-28T00:42:11.747Z,22.85
2017-08-28T00:42:52.318Z,22.83
2017-08-28T00:43:32.891Z,22.88
2017-08-28T00:44:13.447Z,22.85
2017-08-28T00:44:54.002Z,22.88
2017-08-28T00:45:34.553Z,22.92
2017-08-28T00:46:15.108Z,22.97
2017-08-28T00:46:55.659Z,22.97
2017-08-28T00:47:36.216Z,22.9
2017-08-28T00:48:16.777Z,22.77
2017-08-28T00:48:57.344Z,22.83
2017-08-28T00:49:37.902Z,22.85
2017-08-28T00:50:18.446Z,23
2017-08-28T00:50:58.961Z,22.98
2017-08-28T00:51:39.515Z,23
2017-08-28T00:52:20.085Z,23.02
2017-08-28T00:53:00.631Z,22.92
2017-08-28T00:53:41.172Z,22.8
2017-08-28T00:54:21.739Z,22.97
2017-08-28T00:55:02.272Z,23.04
2017-08-28T00:55:42.850Z,22.97
2017-08-28T00:56:23.423Z,23.1
2017-08-28T00:57:03.966Z,23.02
2017-08-28T00:57:44.524Z,23
2017-08-28T00:58:25.082Z,22.94
2017-08-28T00:59:05.644Z,22.79
2017-08-28T00:59:46.217Z,22.7
2017-08-28T01:00:26.786Z,22.83
2017-08-28T01:01:07.341Z,22.79
2017-08-28T01:01:47.999Z,22.72
2017-08-28T01:02:28.445Z,22.67
2017-08-28T01:03:09.025Z,22.55
2017-08-28T01:03:49.578Z,22.4
2017-08-28T01:04:30.142Z,22.55
2017-08-28T01:05:10.725Z,22.55
2017-08-28T01:05:51.281Z,22.57
2017-08-28T01:06:31.832Z,22.52
2017-08-28T01:07:12.382Z,22.58
2017-08-28T01:07:52.955Z,22.54
2017-08-28T01:08:33.498Z,22.52
2017-08-28T01:09:14.057Z,22.58
2017-08-28T01:09:54.625Z,22.57
2017-08-28T01:10:35.175Z,22.49
2017-08-28T01:11:15.707Z,22.55
2017-08-28T01:11:56.281Z,22.6
2017-08-28T01:12:36.815Z,22.6
2017-08-28T01:13:17.379Z,22.58
2017-08-28T01:13:57.932Z,22.68
2017-08-28T01:14:38.478Z,22.62
2017-08-28T01:15:19.021Z,22.65
2017-08-28T01:15:59.570Z,22.7
2017-08-28T01:16:40.129Z,22.67
2017-08-28T01:17:20.674Z,22.73
2017-08-28T01:18:01.235Z,22.73
2017-08-28T01:18:41.794Z,22.79
2017-08-28T01:19:22.347Z,22.82
2017-08-28T01:20:02.879Z,22.76
2017-08-28T01:20:43.454Z,22.6
2017-08-28T01:21:23.983Z,22.54
2017-08-28T01:22:04.543Z,22.58
2017-08-28T01:22:45.092Z,22.64
2017-08-28T01:23:25.634Z,22.54
2017-08-28T01:24:06.184Z,22.47
2017-08-28T01:24:46.746Z,22.42
2017-08-28T01:25:27.285Z,22.42
2017-08-28T01:26:07.835Z,22.52
2017-08-28T01:26:48.387Z,22.55
2017-08-28T01:27:28.937Z,22.55
2017-08-28T01:28:09.499Z,22.54
2017-08-28T01:28:50.033Z,22.55
2017-08-28T01:29:30.594Z,22.55
2017-08-28T01:30:11.150Z,22.45
2017-08-28T01:30:51.707Z,22.55
2017-08-28T01:31:32.268Z,22.54
2017-08-28T01:32:12.811Z,22.52
2017-08-28T01:32:53.373Z,22.52
2017-08-28T01:33:33.936Z,22.62
2017-08-28T01:34:14.503Z,22.6
2017-08-28T01:34:55.034Z,22.49
2017-08-28T01:35:35.607Z,22.49
2017-08-28T01:36:16.166Z,22.54
2017-08-28T01:36:56.735Z,22.64
2017-08-28T01:37:37.324Z,22.52
2017-08-28T01:38:17.850Z,22.57
2017-08-28T01:38:58.400Z,22.57
2017-08-28T01:39:38.976Z,22.52
2017-08-28T01:40:19.501Z,22.39
2017-08-28T01:41:00.054Z,22.46
2017-08-28T01:41:40.603Z,22.51
2017-08-28T01:42:21.142Z,22.55
2017-08-28T01:43:01.686Z,22.55
2017-08-28T01:43:42.242Z,22.28
2017-08-28T01:44:22.803Z,22.42
2017-08-28T01:45:03.365Z,22.31
2017-08-28T01:45:43.914Z,22.3
2017-08-28T01:46:24.472Z,22.36
2017-08-28T01:47:05.074Z,22.42
2017-08-28T01:47:45.551Z,22.49
2017-08-28T01:48:26.109Z,22.46
2017-08-28T01:49:06.658Z,22.45
2017-08-28T01:49:47.242Z,22.37
2017-08-28T01:50:27.820Z,22.46
2017-08-28T01:51:08.381Z,22.4
2017-08-28T01:51:48.954Z,22.43
2017-08-28T01:52:29.513Z,22.45
2017-08-28T01:53:10.069Z,22.3
2017-08-28T01:53:50.632Z,22.3
2017-08-28T01:54:31.183Z,22.15
2017-08-28T01:55:11.747Z,22.15
2017-08-28T01:55:52.295Z,22.17
2017-08-28T01:56:32.850Z,22.22
2017-08-28T01:57:13.420Z,22.28
2017-08-28T01:57:53.945Z,22.3
2017-08-28T01:58:34.488Z,22.3
2017-08-28T01:59:15.034Z,22.3
2017-08-28T01:59:55.575Z,22.3
2017-08-28T02:00:36.120Z,22.27
2017-08-28T02:01:16.675Z,22.35
2017-08-28T02:01:57.218Z,22.33
2017-08-28T02:02:37.774Z,22.33
2017-08-28T02:03:18.326Z,22.35
2017-08-28T02:03:58.899Z,22.31
2017-08-28T02:04:39.476Z,22.42
2017-08-28T02:05:19.979Z,22.27
2017-08-28T02:06:00.553Z,22.2
2017-08-28T02:06:41.123Z,22.33
2017-08-28T02:07:21.689Z,22.28
2017-08-28T02:08:02.282Z,22.27
2017-08-28T02:08:42.822Z,22.3
2017-08-28T02:09:23.404Z,22.31
2017-08-28T02:10:03.962Z,22.3
2017-08-28T02:10:44.507Z,22.42
2017-08-28T02:11:25.062Z,22.43
2017-08-28T02:12:05.611Z,22.33
2017-08-28T02:12:46.150Z,22.15
2017-08-28T02:13:26.684Z,22.2
2017-08-28T02:14:07.255Z,22.2
2017-08-28T02:14:47.791Z,22.31
2017-08-28T02:15:28.352Z,22.27
2017-08-28T02:16:08.881Z,22.18
2017-08-28T02:16:49.418Z,22.27
2017-08-28T02:17:29.988Z,22.31
2017-08-28T02:18:10.567Z,22.31
2017-08-28T02:18:51.108Z,22.31
2017-08-28T02:19:31.663Z,22.27
2017-08-28T02:20:12.222Z,22.28
2017-08-28T02:20:52.771Z,22.28
2017-08-28T02:21:33.317Z,22.28
2017-08-28T02:22:13.900Z,22.25
2017-08-28T02:22:54.431Z,22.17
2017-08-28T02:23:34.985Z,22.17
2017-08-28T02:24:15.516Z,22.31
2017-08-28T02:24:56.079Z,22.31
2017-08-28T02:25:36.618Z,22.31
2017-08-28T02:26:17.174Z,22.27
2017-08-28T02:26:57.700Z,22.21
2017-08-28T02:27:38.278Z,22.24
2017-08-28T02:28:18.817Z,22.21
2017-08-28T02:28:59.365Z,22.2
2017-08-28T02:29:39.920Z,22.06
2017-08-28T02:30:20.465Z,21.92
2017-08-28T02:31:01.031Z,21.96
2017-08-28T02:31:41.591Z,22
2017-08-28T02:32:22.136Z,22.05
2017-08-28T02:33:02.686Z,22
2017-08-28T02:33:43.244Z,22.03
2017-08-28T02:34:23.803Z,22.02
2017-08-28T02:35:04.369Z,22.12
2017-08-28T02:35:44.890Z,22.17
2017-08-28T02:36:25.439Z,22.2
2017-08-28T02:37:05.986Z,22.18
2017-08-28T02:37:46.561Z,22.07
2017-08-28T02:38:27.107Z,21.99
2017-08-28T02:39:07.648Z,21.99
2017-08-28T02:39:48.203Z,22.02
2017-08-28T02:40:28.769Z,22.05
2017-08-28T02:41:09.316Z,22
2017-08-28T02:41:49.871Z,21.92
2017-08-28T02:42:30.431Z,21.99
2017-08-28T02:43:10.986Z,22.06
2017-08-28T02:43:51.528Z,22.06
2017-08-28T02:44:32.090Z,22
2017-08-28T02:45:12.659Z,22.06
2017-08-28T02:45:53.217Z,22.03
2017-08-28T02:46:33.794Z,21.77
2017-08-28T02:47:14.344Z,21.8
2017-08-28T02:47:54.923Z,21.77
2017-08-28T02:48:35.477Z,21.84
2017-08-28T02:49:16.004Z,21.79
2017-08-28T02:49:56.582Z,21.79
2017-08-28T02:50:37.137Z,21.71
2017-08-28T02:51:17.692Z,21.79
2017-08-28T02:51:58.237Z,21.79
2017-08-28T02:52:38.783Z,21.61
2017-08-28T02:53:19.347Z,21.52
2017-08-28T02:53:59.882Z,21.52
2017-08-28T02:54:40.429Z,21.34
2017-08-28T02:55:20.969Z,21.44
2017-08-28T02:56:01.525Z,21.32
2017-08-28T02:56:42.083Z,21.25
2017-08-28T02:57:22.629Z,21.43
2017-08-28T02:58:03.196Z,21.46
2017-08-28T02:58:43.732Z,21.37
2017-08-28T02:59:24.275Z,21.17
2017-08-28T03:00:04.825Z,21.24
2017-08-28T03:00:45.408Z,21.37
2017-08-28T03:01:25.935Z,21.35
2017-08-28T03:02:06.473Z,21.27
2017-08-28T03:02:47.026Z,21.28
2017-08-28T03:03:27.596Z,21.29
2017-08-28T03:04:08.138Z,21.44
2017-08-28T03:04:48.722Z,21.47
2017-08-28T03:05:29.274Z,21.42
2017-08-28T03:06:09.836Z,21.42
2017-08-28T03:06:50.391Z,21.46
2017-08-28T03:07:30.941Z,21.44
2017-08-28T03:08:11.518Z,21.5
2017-08-28T03:08:52.035Z,21.34
2017-08-28T03:09:32.601Z,21.49
2017-08-28T03:10:13.178Z,21.5
2017-08-28T03:10:53.738Z,21.49
2017-08-28T03:11:34.310Z,21.5
2017-08-28T03:12:14.879Z,21.49
2017-08-28T03:12:55.443Z,21.59
2017-08-28T03:13:35.979Z,21.61
2017-08-28T03:14:16.559Z,21.65
2017-08-28T03:14:57.111Z,21.47
2017-08-28T03:15:37.653Z,21.52
2017-08-28T03:16:18.215Z,21.56
2017-08-28T03:16:58.789Z,21.49
2017-08-28T03:17:39.343Z,21.61
2017-08-28T03:18:19.848Z,21.52
2017-08-28T03:19:00.419Z,21.61
2017-08-28T03:19:40.979Z,21.64
2017-08-28T03:20:21.541Z,21.65
2017-08-28T03:21:02.104Z,21.69
2017-08-28T03:21:42.655Z,21.74
2017-08-28T03:22:23.212Z,21.67
2017-08-28T03:23:03.757Z,21.64
2017-08-28T03:23:44.324Z,21.43
2017-08-28T03:24:24.870Z,21.5
2017-08-28T03:25:05.446Z,21.43
2017-08-28T03:25:45.971Z,21.31
2017-08-28T03:26:26.512Z,21.28
2017-08-28T03:27:07.054Z,21.27
2017-08-28T03:27:47.599Z,21.35
2017-08-28T03:28:28.149Z,21.42
2017-08-28T03:29:08.698Z,21.46
2017-08-28T03:29:49.222Z,21.46
2017-08-28T03:30:29.822Z,21.5
2017-08-28T03:31:10.376Z,21.58
2017-08-28T03:31:50.901Z,21.56
2017-08-28T03:32:31.467Z,21.58
2017-08-28T03:33:11.992Z,21.59
2017-08-28T03:33:52.571Z,21.61
2017-08-28T03:34:33.110Z,21.47
2017-08-28T03:35:13.668Z,21.52
2017-08-28T03:35:54.222Z,21.49
2017-08-28T03:36:34.786Z,21.46
2017-08-28T03:37:15.346Z,21.31
2017-08-28T03:37:55.864Z,21.38
2017-08-28T03:38:36.425Z,21.34
2017-08-28T03:39:16.978Z,21.32
2017-08-28T03:39:57.547Z,21.32
2017-08-28T03:40:38.078Z,21.43
2017-08-28T03:41:18.645Z,21.5
2017-08-28T03:41:59.190Z,21.49
2017-08-28T03:42:39.737Z,21.54
2017-08-28T03:43:20.283Z,21.58
2017-08-28T03:44:00.857Z,21.5
2017-08-28T03:44:41.423Z,21.46
2017-08-28T03:45:21.984Z,21.47
2017-08-28T03:46:02.523Z,21.56
2017-08-28T03:46:43.058Z,21.64
2017-08-28T03:47:23.617Z,21.49
2017-08-28T03:48:04.183Z,21.62
2017-08-28T03:48:44.714Z,21.64
2017-08-28T03:49:25.259Z,21.65
2017-08-28T03:50:05.792Z,21.65
2017-08-28T03:50:46.374Z,21.71
2017-08-28T03:51:26.925Z,21.67
2017-08-28T03:52:07.459Z,21.69
2017-08-28T03:52:48.018Z,21.65
2017-08-28T03:53:28.565Z,21.65
2017-08-28T03:54:09.121Z,21.64
2017-08-28T03:54:49.675Z,21.67
2017-08-28T03:55:30.243Z,21.56
2017-08-28T03:56:10.748Z,21.59
2017-08-28T03:56:51.323Z,21.43
2017-08-28T03:57:31.866Z,21.38
2017-08-28T03:58:12.431Z,21.37
2017-08-28T03:58:52.954Z,21.28
2017-08-28T03:59:33.524Z,21.4
2017-08-28T04:00:14.060Z,21.31
2017-08-28T04:00:54.595Z,21.34
2017-08-28T04:01:35.153Z,21.32
2017-08-28T04:02:15.727Z,21.37
2017-08-28T04:02:56.229Z,21.19
2017-08-28T04:03:36.794Z,21.35
2017-08-28T04:04:17.351Z,21.24
2017-08-28T04:04:57.913Z,21.25
2017-08-28T04:05:38.453Z,21.19
2017-08-28T04:06:19.017Z,21.17
2017-08-28T04:06:59.586Z,21.25
2017-08-28T04:07:40.138Z,21.21
2017-08-28T04:08:20.689Z,21.13
2017-08-28T04:09:01.262Z,21.21
2017-08-28T04:09:41.783Z,21.21
2017-08-28T04:10:22.343Z,21.31
2017-08-28T04:11:02.881Z,21.29
2017-08-28T04:11:43.454Z,21.14
2017-08-28T04:12:23.985Z,21.28
2017-08-28T04:13:04.539Z,21.27
2017-08-28T04:13:45.060Z,21.32
2017-08-28T04:14:25.656Z,21.22
2017-08-28T04:15:06.187Z,21.16
2017-08-28T04:15:46.763Z,21.16
2017-08-28T04:16:27.322Z,21.14
2017-08-28T04:17:07.861Z,21.25
2017-08-28T04:17:48.420Z,21.32
2017-08-28T04:18:28.979Z,21.22
2017-08-28T04:19:09.520Z,21.22
2017-08-28T04:19:50.096Z,21.29
2017-08-28T04:20:30.643Z,21.17
2017-08-28T04:21:11.214Z,21.14
2017-08-28T04:21:51.754Z,21.14
2017-08-28T04:22:32.310Z,21.14
2017-08-28T04:23:12.820Z,21.24
2017-08-28T04:23:53.386Z,21.25
2017-08-28T04:24:33.934Z,21.29
2017-08-28T04:25:14.506Z,21.25
2017-08-28T04:25:55.035Z,21.38
2017-08-28T04:26:35.617Z,21.28
2017-08-28T04:27:16.181Z,21.34
2017-08-28T04:27:56.695Z,21.43
2017-08-28T04:28:37.263Z,21.43
2017-08-28T04:29:17.797Z,21.34
2017-08-28T04:29:58.400Z,21.37
2017-08-28T04:30:38.956Z,21.37
2017-08-28T04:31:19.511Z,21.43
2017-08-28T04:32:00.068Z,21.44
2017-08-28T04:32:40.622Z,21.46
2017-08-28T04:33:21.160Z,21.44
2017-08-28T04:34:01.716Z,21.53
2017-08-28T04:34:42.267Z,21.42
2017-08-28T04:35:22.816Z,21.35
2017-08-28T04:36:03.389Z,21.42
2017-08-28T04:36:43.953Z,21.4
2017-08-28T04:37:24.468Z,21.43
2017-08-28T04:38:05.038Z,21.49
2017-08-28T04:38:45.594Z,21.47
2017-08-28T04:39:26.139Z,21.49
2017-08-28T04:40:06.707Z,21.47
2017-08-28T04:40:47.269Z,21.46
2017-08-28T04:41:27.828Z,21.5
2017-08-28T04:42:08.377Z,21.54
2017-08-28T04:42:48.923Z,21.37
2017-08-28T04:43:29.463Z,21.4
2017-08-28T04:44:10.010Z,21.43
2017-08-28T04:44:50.560Z,21.32
2017-08-28T04:45:31.114Z,21.29
2017-08-28T04:46:11.682Z,21.25
2017-08-28T04:46:52.190Z,21.32
2017-08-28T04:47:32.753Z,21.28
2017-08-28T04:48:13.299Z,21.31
2017-08-28T04:48:53.862Z,21.25
2017-08-28T04:49:34.398Z,21.14
2017-08-28T04:50:14.956Z,21.19
2017-08-28T04:50:55.502Z,21.17
2017-08-28T04:51:36.055Z,21.21
2017-08-28T04:52:16.608Z,21.25
2017-08-28T04:52:57.177Z,21.19
2017-08-28T04:53:37.742Z,21.28
2017-08-28T04:54:18.301Z,21.31
2017-08-28T04:54:58.842Z,21.34
2017-08-28T04:55:39.381Z,21.38
2017-08-28T04:56:19.983Z,21.38
2017-08-28T04:57:00.509Z,21.42
2017-08-28T04:57:41.112Z,21.42
2017-08-28T04:58:21.657Z,21.38
2017-08-28T04:59:02.191Z,21.31
2017-08-28T04:59:42.756Z,21.29
2017-08-28T05:00:23.292Z,21.32
2017-08-28T05:01:03.835Z,21.31
2017-08-28T05:01:44.397Z,21.37
2017-08-28T05:02:24.968Z,21.37
2017-08-28T05:03:05.517Z,21.29
2017-08-28T05:03:46.069Z,21.34
2017-08-28T05:04:26.721Z,21.37
2017-08-28T05:05:07.333Z,21.38
2017-08-28T05:05:47.829Z,21.29
2017-08-28T05:06:28.386Z,21.34
2017-08-28T05:07:08.916Z,21.31
2017-08-28T05:07:49.473Z,21.34
2017-08-28T05:08:30.026Z,21.46
2017-08-28T05:09:10.608Z,21.35
2017-08-28T05:09:51.242Z,21.37
2017-08-28T05:10:31.787Z,21.42
2017-08-28T05:11:12.321Z,21.44
2017-08-28T05:11:52.900Z,21.27
2017-08-28T05:12:33.442Z,21.27
2017-08-28T05:13:14.059Z,21.31
2017-08-28T05:13:54.591Z,21.19
2017-08-28T05:14:35.133Z,21.12
2017-08-28T05:15:15.700Z,21.28
2017-08-28T05:15:56.257Z,21.31
2017-08-28T05:16:36.783Z,21.35
2017-08-28T05:17:17.356Z,21.28
2017-08-28T05:17:57.910Z,21.12
2017-08-28T05:18:38.498Z,21.14
2017-08-28T05:19:19.222Z,21.16
2017-08-28T05:19:59.738Z,21.1
2017-08-28T05:20:40.294Z,21.1
2017-08-28T05:21:20.846Z,21.13
2017-08-28T05:22:01.391Z,21.04
2017-08-28T05:22:41.944Z,20.98
2017-08-28T05:23:22.498Z,20.99
2017-08-28T05:24:03.069Z,21.03
2017-08-28T05:24:43.639Z,21.07
2017-08-28T05:25:24.209Z,21.14
2017-08-28T05:26:04.770Z,21.24
2017-08-28T05:26:45.341Z,21.25
2017-08-28T05:27:25.894Z,21.1
2017-08-28T05:28:06.459Z,21.35
2017-08-28T05:28:46.970Z,21.35
2017-08-28T05:29:27.534Z,21.31
2017-08-28T05:30:08.055Z,21.35
2017-08-28T05:30:48.642Z,21.27
2017-08-28T05:31:29.185Z,21.35
2017-08-28T05:32:09.741Z,21.4
2017-08-28T05:32:50.298Z,21.25
2017-08-28T05:33:30.825Z,21.37
2017-08-28T05:34:11.400Z,21.34
2017-08-28T05:34:51.937Z,21.31
2017-08-28T05:35:32.498Z,21.5
2017-08-28T05:36:13.037Z,21.44
2017-08-28T05:36:53.571Z,21.43
2017-08-28T05:37:34.177Z,21.46
2017-08-28T05:38:14.684Z,21.44
2017-08-28T05:38:55.235Z,21.52
2017-08-28T05:39:35.760Z,21.56
2017-08-28T05:40:19.204Z,21.62
2017-08-28T05:40:59.717Z,21.64
2017-08-28T05:41:40.265Z,21.69
2017-08-28T05:42:20.827Z,21.61
2017-08-28T05:43:01.356Z,21.64
2017-08-28T05:43:41.901Z,21.68
2017-08-28T05:44:22.380Z,21.69
2017-08-28T05:45:02.915Z,21.75
2017-08-28T05:45:43.442Z,21.71
2017-08-28T05:46:23.968Z,21.46
2017-08-28T05:47:04.570Z,21.49
2017-08-28T05:47:45.110Z,21.52
2017-08-28T05:48:25.649Z,21.52
2017-08-28T05:49:06.194Z,21.46
2017-08-28T05:49:46.733Z,21.44
2017-08-28T05:50:27.292Z,21.42
2017-08-28T05:51:07.833Z,21.44
2017-08-28T05:51:48.357Z,21.52
2017-08-28T05:52:28.920Z,21.5
2017-08-28T05:53:09.516Z,21.49
2017-08-28T05:53:50.102Z,21.46
2017-08-28T05:54:30.600Z,21.5
2017-08-28T05:55:11.162Z,21.5
2017-08-28T05:55:51.734Z,21.5
2017-08-28T05:56:32.282Z,21.52
2017-08-28T05:57:12.809Z,21.54
2017-08-28T05:57:53.346Z,21.29
2017-08-28T05:58:33.915Z,21.43
2017-08-28T05:59:14.641Z,21.46
2017-08-28T05:59:55.205Z,21.53
2017-08-28T06:00:35.750Z,21.49
2017-08-28T06:01:16.278Z,21.54
2017-08-28T06:01:56.815Z,21.5
2017-08-28T06:02:37.361Z,21.5
2017-08-28T06:03:17.922Z,21.5
2017-08-28T06:03:58.464Z,21.5
2017-08-28T06:04:38.995Z,21.44
2017-08-28T06:05:19.554Z,21.68
2017-08-28T06:06:00.125Z,21.61
2017-08-28T06:06:40.680Z,21.82
2017-08-28T06:07:21.245Z,21.8
2017-08-28T06:08:01.791Z,22
2017-08-28T06:08:42.573Z,22.02
2017-08-28T06:09:23.493Z,21.94
2017-08-28T06:10:04.148Z,22.06
2017-08-28T06:10:44.718Z,22.12
2017-08-28T06:11:25.259Z,22
2017-08-28T06:12:05.767Z,22
2017-08-28T06:12:46.580Z,22.05
2017-08-28T06:13:27.111Z,22.15
2017-08-28T06:14:07.647Z,22.06
2017-08-28T06:14:48.264Z,22.03
2017-08-28T06:15:28.816Z,22.14
2017-08-28T06:16:09.362Z,22.17
2017-08-28T06:16:49.929Z,22.18
2017-08-28T06:17:30.482Z,22.27
2017-08-28T06:18:11.040Z,22.33
2017-08-28T06:18:51.622Z,22.47
2017-08-28T06:19:32.155Z,22.42
2017-08-28T06:20:12.709Z,22.45
2017-08-28T06:20:53.239Z,22.31
2017-08-28T06:21:33.880Z,22.28
2017-08-28T06:22:14.431Z,22.15
2017-08-28T06:22:54.947Z,22.25
2017-08-28T06:23:35.497Z,22.17
2017-08-28T06:24:16.082Z,22.3
2017-08-28T06:24:56.604Z,22.24
2017-08-28T06:25:37.127Z,22.43
2017-08-28T06:26:17.688Z,22.39
2017-08-28T06:26:58.305Z,22.4
2017-08-28T06:27:38.882Z,22.28
2017-08-28T06:28:19.422Z,22.35
2017-08-28T06:28:59.964Z,22.45
2017-08-28T06:29:40.477Z,22.3
2017-08-28T06:30:21.058Z,22.42
2017-08-28T06:31:01.606Z,22.52
2017-08-28T06:31:42.212Z,22.47
2017-08-28T06:32:22.720Z,22.67
2017-08-28T06:33:03.293Z,22.57
2017-08-28T06:33:43.801Z,22.33
2017-08-28T06:34:24.361Z,22.46
2017-08-28T06:35:04.907Z,22.43
2017-08-28T06:35:45.450Z,22.36
2017-08-28T06:36:26.001Z,22.54
2017-08-28T06:37:06.557Z,22.39
2017-08-28T06:37:47.122Z,22.45
2017-08-28T06:38:27.669Z,22.49
2017-08-28T06:39:08.252Z,22.52
2017-08-28T06:39:48.776Z,22.58
2017-08-28T06:40:29.353Z,22.57
2017-08-28T06:41:09.880Z,22.54
2017-08-28T06:41:50.477Z,22.42
2017-08-28T06:42:30.985Z,22.28
2017-08-28T06:43:11.519Z,22.35
2017-08-28T06:43:52.089Z,22.33
2017-08-28T06:44:32.617Z,22.27
2017-08-28T06:45:13.189Z,22.33
2017-08-28T06:45:53.695Z,22.27
2017-08-28T06:46:34.239Z,22.33
2017-08-28T06:47:14.773Z,22.31
2017-08-28T06:47:55.330Z,22.3
2017-08-28T06:48:35.851Z,22.4
2017-08-28T06:49:16.407Z,22.46
2017-08-28T06:49:56.931Z,22.57
2017-08-28T06:50:37.506Z,22.51
2017-08-28T06:51:18.047Z,22.54
2017-08-28T06:51:58.605Z,22.57
2017-08-28T06:52:39.180Z,22.37
2017-08-28T06:53:19.699Z,22.37
2017-08-28T06:54:00.274Z,22.42
2017-08-28T06:54:40.824Z,22.4
2017-08-28T06:55:21.351Z,22.55
2017-08-28T06:56:01.883Z,22.67
2017-08-28T06:56:42.425Z,22.67
2017-08-28T06:57:22.986Z,22.67
2017-08-28T06:58:03.528Z,22.57
2017-08-28T06:58:44.075Z,22.6
2017-08-28T06:59:24.656Z,22.54
2017-08-28T07:00:05.209Z,22.64
2017-08-28T07:00:45.723Z,22.61
2017-08-28T07:01:26.274Z,22.58
2017-08-28T07:02:06.799Z,22.65
2017-08-28T07:02:47.411Z,22.65
2017-08-28T07:03:27.994Z,22.6
2017-08-28T07:04:08.477Z,22.77
2017-08-28T07:04:49.019Z,22.9
2017-08-28T07:05:29.564Z,22.97
2017-08-28T07:06:10.105Z,23.12
2017-08-28T07:06:50.609Z,23.12
2017-08-28T07:07:31.139Z,23.05
2017-08-28T07:08:11.675Z,23.27
2017-08-28T07:08:52.254Z,23.28
2017-08-28T07:09:32.808Z,23.47
2017-08-28T07:10:13.319Z,23.47
2017-08-28T07:10:53.873Z,23.42
2017-08-28T07:11:34.430Z,23.5
2017-08-28T07:12:15.064Z,23.7
2017-08-28T07:12:55.555Z,23.75
2017-08-28T07:13:36.106Z,23.72
2017-08-28T07:14:16.650Z,23.7
2017-08-28T07:14:57.207Z,23.72
2017-08-28T07:15:37.734Z,23.69
2017-08-28T07:16:18.360Z,23.85
2017-08-28T07:16:58.909Z,23.98
2017-08-28T07:17:39.418Z,23.98
2017-08-28T07:18:20.000Z,23.8
2017-08-28T07:19:00.555Z,23.73
2017-08-28T07:19:41.035Z,23.8
2017-08-28T07:20:21.589Z,23.83
2017-08-28T07:21:02.140Z,23.83
2017-08-28T07:21:42.666Z,23.85
2017-08-28T07:22:23.752Z,23.72
2017-08-28T07:23:04.273Z,23.68
2017-08-28T07:23:44.833Z,23.69
2017-08-28T07:24:25.369Z,23.6
2017-08-28T07:25:05.935Z,23.6
2017-08-28T07:25:46.460Z,23.51
2017-08-28T07:26:27.028Z,23.83
2017-08-28T07:27:07.552Z,23.98
2017-08-28T07:27:48.129Z,24.02
2017-08-28T07:28:28.662Z,23.79
2017-08-28T07:29:09.224Z,23.85
2017-08-28T07:29:49.693Z,23.87
2017-08-28T07:30:30.257Z,24
2017-08-28T07:31:10.768Z,24.06
2017-08-28T07:31:51.324Z,24.12
2017-08-28T07:32:31.871Z,24.12
2017-08-28T07:33:12.360Z,23.91
2017-08-28T07:33:52.940Z,23.84
2017-08-28T07:34:33.500Z,23.63
2017-08-28T07:35:14.007Z,23.78
2017-08-28T07:35:54.563Z,23.97
2017-08-28T07:36:35.089Z,23.72
2017-08-28T07:37:15.635Z,23.85
2017-08-28T07:37:56.192Z,23.75
2017-08-28T07:38:36.719Z,23.78
2017-08-28T07:39:17.274Z,23.98
2017-08-28T07:39:57.808Z,24.06
2017-08-28T07:40:38.343Z,24.05
2017-08-28T07:41:18.893Z,23.94
2017-08-28T07:41:59.599Z,24.06
2017-08-28T07:42:39.997Z,24.13
2017-08-28T07:43:20.545Z,24.31
2017-08-28T07:44:01.098Z,24.25
2017-08-28T07:44:41.614Z,24.3
2017-08-28T07:45:22.217Z,24.24
2017-08-28T07:46:02.723Z,24.4
2017-08-28T07:46:43.267Z,24.34
2017-08-28T07:47:23.788Z,24.39
2017-08-28T07:48:04.321Z,24.52
2017-08-28T07:48:44.872Z,24.42
2017-08-28T07:49:25.432Z,24.39
2017-08-28T07:50:05.944Z,24.3
2017-08-28T07:50:46.513Z,24.37
2017-08-28T07:51:27.005Z,24.22
2017-08-28T07:52:07.559Z,24.25
2017-08-28T07:52:48.108Z,24.2
2017-08-28T07:53:28.689Z,24.2
2017-08-28T07:54:09.154Z,24.27
2017-08-28T07:54:49.735Z,24.31
2017-08-28T07:55:30.257Z,24.27
2017-08-28T07:56:10.797Z,24.31
2017-08-28T07:56:51.346Z,24.18
2017-08-28T07:57:31.892Z,24.08
2017-08-28T07:58:12.456Z,24.13
2017-08-28T07:58:53.037Z,24.12
2017-08-28T07:59:33.538Z,24.09
2017-08-28T08:00:14.092Z,24.12
2017-08-28T08:00:54.647Z,24.02
2017-08-28T08:01:35.137Z,24.15
2017-08-28T08:02:15.746Z,24.12
2017-08-28T08:02:56.244Z,24.06
2017-08-28T08:03:36.827Z,24.1
2017-08-28T08:04:17.348Z,24.13
2017-08-28T08:04:57.900Z,24.06
2017-08-28T08:05:38.501Z,24.12
2017-08-28T08:06:19.057Z,24.24
2017-08-28T08:06:59.609Z,24.32
2017-08-28T08:07:40.149Z,24.34
2017-08-28T08:08:20.707Z,24.4
2017-08-28T08:09:01.257Z,24.46
2017-08-28T08:09:41.801Z,24.31
2017-08-28T08:10:22.385Z,24.31
2017-08-28T08:11:02.883Z,24.3
2017-08-28T08:11:43.437Z,24.06
2017-08-28T08:12:23.983Z,24.16
2017-08-28T08:13:04.533Z,24.16
2017-08-28T08:13:45.067Z,24.13
2017-08-28T08:14:25.613Z,24.1
2017-08-28T08:15:06.127Z,24.25
2017-08-28T08:15:46.705Z,24.3
2017-08-28T08:16:27.252Z,24.1
2017-08-28T08:17:07.806Z,24.15
2017-08-28T08:17:48.358Z,24.15
2017-08-28T08:18:28.892Z,24.25
2017-08-28T08:19:09.388Z,24.2
2017-08-28T08:19:49.977Z,24.2
2017-08-28T08:20:30.497Z,24.22
2017-08-28T08:21:11.164Z,24.25
2017-08-28T08:21:51.672Z,24.25
2017-08-28T08:22:32.259Z,24.31
2017-08-28T08:23:12.798Z,24.34
2017-08-28T08:23:53.375Z,24.25
2017-08-28T08:24:33.904Z,24.27
2017-08-28T08:25:14.430Z,24.25
2017-08-28T08:25:54.968Z,24.22
2017-08-28T08:26:35.480Z,24.1
2017-08-28T08:27:16.059Z,24.12
2017-08-28T08:27:56.626Z,24.13
2017-08-28T08:28:37.160Z,24.3
2017-08-28T08:29:17.699Z,24.24
2017-08-28T08:29:58.222Z,24.32
2017-08-28T08:30:38.820Z,24.4
2017-08-28T08:31:19.358Z,24.42
2017-08-28T08:31:59.889Z,24.31
2017-08-28T08:32:40.474Z,24.32
2017-08-28T08:33:20.954Z,24.37
2017-08-28T08:34:01.498Z,24.55
2017-08-28T08:34:42.000Z,24.55
2017-08-28T08:35:22.571Z,24.6
2017-08-28T08:36:03.076Z,24.58
2017-08-28T08:36:43.632Z,24.58
2017-08-28T08:37:24.149Z,24.49
2017-08-28T08:38:04.737Z,24.55
2017-08-28T08:38:45.213Z,24.49
2017-08-28T08:39:25.756Z,24.49
2017-08-28T08:40:06.352Z,24.45
2017-08-28T08:40:46.887Z,24.46
2017-08-28T08:41:27.468Z,24.47
2017-08-28T08:42:08.002Z,24.46
2017-08-28T08:42:48.562Z,24.49
2017-08-28T08:43:29.095Z,24.45
2017-08-28T08:44:09.604Z,24.6
2017-08-28T08:44:50.200Z,24.67